Airfield :







YOU CAN JOIN US ON...

 
LOGIN :

Register | Disclaimer

   EN    FR    IT 

 









Legend :    VFR   Marginal VFR   IFR   Intensive IFR   Very Intensive IFR
Visi :
Ceiling :
>= 8 km
>= 3000ft
5 to 8 km
1000 to 3000 ft
1500m to 5 km
500 to 1000 ft
800 to 1500m
200 to 500 ft
< 800m
< 200 ft
Symbols :   Thunderstorms  Fog  Heavy snow  Heavy precipitations  Wind > 20 kt






- Airport Elevation : 20 ft
- IATA code : BOS


KBOS - General Edward Lawrence Logan International

CURRENT METAR :
  • 221005Z 20006KT 10SM BKN009 OVC055 23/20 A2961 RMK AO2 T02280200

EXPIRED METARs :
  • 220954Z 21007KT 10SM SCT009 OVC055 23/20 A2961 RMK AO2 SLP027 T02280200
  • 220854Z 22007KT 10SM SCT009 BKN055 OVC200 23/20 A2960 RMK A02 SLP023 T02280200 51005
  • 220754Z 21011KT 10SM FEW011 BKN055 BKN200 23/19 A2960 RMK AO2 SLP022 T02280194

TAF KBOS
Valid from the 22 at 09:00 until the 23 at 12:00 UTC


220831Z 2209/2312 21011KT P6SM SCT015 BKN040
FM221600 27010KT P6SM VCSH BKN040
FM222100 30011G19KT P6SM -SHRA OVC025
FM230200 32008KT P6SM OVC045
KZBW FIR / North America



MET'MAP, your aeronautical weather chart ! - Copyright ORBIFLY December 2007 - Disclaimer

ORBIFLY MET'MAP TEAM :

Programming & Development : Alexandra Zaïnal
Concept & original design : Baudouin d'Aumeries
Assistance for programming : Marc-Olivier Méhu
Technical & hardware support : Manuel Goepfert

Contact : metmap@orbifly.com




SOURCES & CREDITS :

   NOAA